createdAt,value
2023-03-21T00:00:01.802Z,3.70
2023-03-21T00:05:15.087Z,3.50
2023-03-21T00:10:29.759Z,3.65
2023-03-21T00:16:03.783Z,3.95
2023-03-21T00:26:34.224Z,3.85
2023-03-21T00:31:41.255Z,3.85
2023-03-21T00:36:44.247Z,4.03
2023-03-21T00:41:46.309Z,3.53
2023-03-21T00:47:04.250Z,3.88
2023-03-21T00:52:27.369Z,4.05
2023-03-21T01:03:08.532Z,4.00
2023-03-21T01:08:25.398Z,4.00
2023-03-21T01:13:30.613Z,3.58
2023-03-21T01:18:35.714Z,3.90
2023-03-21T01:23:42.819Z,3.45
2023-03-21T01:28:45.935Z,3.00
2023-03-21T01:33:48.092Z,3.13
2023-03-21T01:38:50.711Z,3.10
2023-03-21T01:43:53.974Z,3.00
2023-03-21T01:49:05.104Z,3.08
2023-03-21T01:54:10.456Z,2.88
2023-03-21T01:59:17.685Z,3.25
2023-03-21T02:04:22.619Z,3.30
2023-03-21T02:09:28.527Z,3.72
2023-03-21T02:14:38.033Z,3.65
2023-03-21T02:20:09.252Z,3.60
2023-03-21T02:25:43.593Z,3.80
2023-03-21T02:36:28.759Z,3.60
2023-03-21T02:41:40.152Z,3.90
2023-03-21T02:46:49.069Z,3.83
2023-03-21T02:52:05.453Z,4.13
2023-03-21T02:57:19.077Z,3.85
2023-03-21T03:02:27.466Z,3.75
2023-03-21T03:07:44.594Z,3.40
2023-03-21T03:12:57.865Z,3.10
2023-03-21T03:18:08.562Z,3.27
2023-03-21T03:23:21.353Z,3.50
2023-03-21T03:28:30.669Z,3.15
2023-03-21T03:33:38.257Z,2.78
2023-03-21T03:38:42.364Z,2.75
2023-03-21T03:43:49.559Z,2.72
2023-03-21T03:49:16.814Z,2.67
2023-03-21T03:54:28.800Z,2.42
2023-03-21T03:59:35.561Z,2.67
2023-03-21T04:04:37.526Z,2.92
2023-03-21T04:09:44.829Z,2.65
2023-03-21T04:14:48.237Z,2.80
2023-03-21T04:19:57.707Z,2.80
2023-03-21T04:25:07.663Z,2.97
2023-03-21T04:30:12.362Z,2.88
2023-03-21T04:35:15.578Z,3.65
2023-03-21T04:40:19.159Z,2.93
2023-03-21T04:50:24.504Z,2.95
2023-03-21T04:55:28.304Z,3.40
2023-03-21T05:00:39.283Z,2.80
2023-03-21T05:05:41.585Z,2.67
2023-03-21T05:10:43.888Z,2.30
2023-03-21T05:15:46.015Z,2.45
2023-03-21T05:20:54.389Z,2.58
2023-03-21T05:25:56.324Z,2.00
2023-03-21T05:31:05.369Z,2.60
2023-03-21T05:36:09.979Z,2.47
2023-03-21T05:41:15.078Z,2.50
2023-03-21T05:46:17.172Z,2.40
2023-03-21T05:51:23.274Z,2.78
2023-03-21T05:56:26.438Z,2.97
2023-03-21T06:11:36.437Z,0.50
2023-03-21T06:11:56.945Z,0.20
2023-03-21T06:12:08.963Z,0.20
2023-03-21T06:12:20.892Z,55.47
2023-03-21T06:12:35.204Z,159.10
2023-03-21T06:12:47.114Z,156.93
2023-03-21T06:12:59.072Z,0.55
2023-03-21T06:13:11.035Z,0.57
2023-03-21T06:13:22.977Z,0.77
2023-03-21T06:13:34.879Z,0.90
2023-03-21T06:13:46.751Z,0.80
2023-03-21T06:14:01.250Z,0.80
2023-03-21T06:14:13.155Z,0.80
2023-03-21T06:14:25.638Z,0.80
2023-03-21T06:14:37.649Z,0.90
2023-03-21T06:14:50.480Z,1.00
2023-03-21T06:15:04.611Z,1.00
2023-03-21T06:15:16.954Z,1.15
2023-03-21T06:15:29.115Z,1.10
2023-03-21T06:25:45.261Z,0.45
2023-03-21T06:45:09.990Z,1.30
2023-03-21T06:55:12.140Z,0.60
2023-03-21T07:05:17.370Z,6.45
2023-03-21T07:15:19.417Z,11.63
2023-03-21T07:25:22.458Z,12.55
2023-03-21T07:35:24.498Z,9.93
2023-03-21T07:45:27.700Z,9.27
2023-03-21T07:55:40.246Z,8.80
2023-03-21T08:05:42.753Z,8.30
2023-03-21T08:15:45.802Z,7.38
2023-03-21T08:25:58.057Z,7.05
2023-03-21T08:36:01.180Z,7.20
2023-03-21T08:46:09.274Z,6.28
2023-03-21T08:56:13.317Z,6.25
2023-03-21T09:06:17.685Z,7.10
2023-03-21T09:16:28.773Z,5.95
2023-03-21T09:26:31.472Z,5.60
2023-03-21T09:36:44.401Z,5.22
2023-03-21T09:47:09.491Z,6.10
2023-03-21T09:57:23.689Z,5.10
2023-03-21T10:07:31.239Z,6.40
2023-03-21T10:18:10.547Z,8.00
2023-03-21T10:28:27.286Z,6.93
2023-03-21T10:38:31.551Z,6.38
2023-03-21T10:48:39.979Z,5.53
2023-03-21T10:58:47.256Z,4.57
2023-03-21T11:08:56.976Z,3.97
2023-03-21T11:19:16.385Z,3.65
2023-03-21T11:29:24.487Z,4.03
2023-03-21T11:39:41.344Z,4.55
2023-03-21T11:49:58.409Z,3.58
2023-03-21T12:00:26.562Z,3.75
2023-03-21T12:10:47.930Z,2.72
2023-03-21T12:21:21.136Z,3.67
2023-03-21T12:32:08.685Z,3.35
2023-03-21T12:42:35.184Z,3.95
2023-03-21T12:52:48.835Z,4.03
2023-03-21T13:03:21.059Z,3.90
2023-03-21T13:13:33.601Z,4.30
2023-03-21T13:23:38.307Z,4.80
2023-03-21T13:33:45.315Z,4.15
2023-03-21T13:44:08.998Z,4.25
2023-03-21T13:54:14.186Z,3.28
2023-03-21T14:04:26.339Z,2.10
2023-03-21T14:14:44.494Z,2.22
2023-03-21T14:25:10.209Z,3.05
2023-03-21T14:45:23.341Z,2.88
2023-03-21T14:55:26.096Z,4.03
2023-03-21T15:05:46.437Z,4.35
2023-03-21T15:16:00.326Z,3.95
2023-03-21T15:26:04.364Z,5.32
2023-03-21T15:36:10.363Z,5.13
2023-03-21T15:46:33.425Z,4.90
2023-03-21T15:56:36.566Z,3.83
2023-03-21T16:06:53.669Z,5.93
2023-03-21T16:16:58.390Z,5.68
2023-03-21T16:27:00.794Z,7.78
2023-03-21T16:37:03.620Z,9.18
2023-03-21T16:47:15.831Z,6.78
2023-03-21T16:57:30.466Z,7.65
2023-03-21T17:07:44.293Z,7.82
2023-03-21T17:17:50.483Z,10.55
2023-03-21T17:27:54.340Z,10.18
2023-03-21T17:37:59.162Z,13.13
2023-03-21T17:48:03.212Z,12.82
2023-03-21T17:58:13.284Z,18.85
2023-03-21T18:08:27.345Z,19.80
2023-03-21T18:18:32.175Z,20.80
2023-03-21T18:28:39.735Z,26.35
2023-03-21T18:38:46.798Z,32.83
2023-03-21T18:49:07.888Z,36.38
2023-03-21T18:59:23.080Z,25.13
2023-03-21T19:09:32.459Z,38.15
2023-03-21T19:19:36.834Z,38.33
2023-03-21T19:29:57.004Z,36.00
2023-03-21T19:40:10.819Z,40.60
2023-03-21T20:00:38.449Z,44.95
2023-03-21T20:10:44.408Z,47.03
2023-03-21T20:20:53.287Z,50.80
2023-03-21T20:31:05.887Z,54.35
2023-03-21T20:41:15.878Z,60.15
2023-03-21T21:01:59.874Z,61.30
2023-03-21T21:12:07.121Z,81.93
2023-03-21T21:32:17.019Z,124.10
2023-03-21T21:42:20.180Z,134.15
2023-03-21T21:52:24.436Z,120.65
2023-03-21T22:02:50.281Z,104.60
2023-03-21T22:13:02.269Z,95.70
2023-03-21T22:23:05.239Z,91.85
2023-03-21T22:33:09.878Z,87.53
2023-03-21T22:43:12.373Z,93.05
2023-03-21T22:53:16.409Z,89.65
2023-03-21T23:03:18.673Z,85.53
2023-03-21T23:13:26.918Z,85.90
2023-03-21T23:23:36.968Z,73.72
2023-03-21T23:33:39.113Z,75.45
2023-03-21T23:43:42.774Z,66.82
2023-03-21T23:53:56.907Z,66.70
